createdAt,value
2023-07-28T00:03:05.011Z,65.66
2023-07-28T00:08:09.209Z,65.39
2023-07-28T00:13:13.437Z,65.30
2023-07-28T00:18:19.926Z,65.01
2023-07-28T00:23:23.896Z,63.89
2023-07-28T00:28:28.312Z,64.36
2023-07-28T00:33:32.582Z,65.15
2023-07-28T00:38:36.768Z,66.03
2023-07-28T00:43:41.053Z,65.32
2023-07-28T00:48:46.469Z,64.94
2023-07-28T00:53:50.607Z,63.67
2023-07-28T00:58:54.832Z,64.41
2023-07-28T01:04:00.063Z,64.71
2023-07-28T01:09:11.413Z,65.27
2023-07-28T01:14:15.541Z,65.53
2023-07-28T01:19:23.998Z,64.85
2023-07-28T01:24:50.872Z,64.11
2023-07-28T01:29:55.194Z,63.37
2023-07-28T01:34:59.262Z,62.95
2023-07-28T01:40:04.120Z,62.45
2023-07-28T01:45:09.401Z,62.29
2023-07-28T01:50:13.557Z,62.05
2023-07-28T01:55:17.614Z,61.17
2023-07-28T02:00:21.822Z,61.32
2023-07-28T02:05:26.189Z,61.19
2023-07-28T02:10:32.638Z,60.39
2023-07-28T02:15:38.434Z,60.26
2023-07-28T02:20:44.824Z,59.22
2023-07-28T02:25:49.157Z,59.61
2023-07-28T02:30:53.230Z,62.37
2023-07-28T02:35:58.539Z,64.39
2023-07-28T02:41:04.689Z,61.79
2023-07-28T02:46:08.625Z,61.40
2023-07-28T02:51:12.588Z,61.69
2023-07-28T02:56:16.708Z,61.43
2023-07-28T03:01:22.550Z,61.35
2023-07-28T03:06:26.621Z,61.36
2023-07-28T03:11:30.730Z,60.98
2023-07-28T03:16:35.237Z,60.68
2023-07-28T03:21:40.333Z,60.24
2023-07-28T03:26:44.592Z,60.29
2023-07-28T03:31:48.754Z,60.67
2023-07-28T03:36:53.090Z,61.51
2023-07-28T03:41:57.515Z,60.68
2023-07-28T03:47:01.890Z,58.67
2023-07-28T03:52:06.792Z,58.74
2023-07-28T03:57:11.789Z,59.72
2023-07-28T04:02:15.770Z,60.96
2023-07-28T04:07:19.821Z,65.23
2023-07-28T04:12:24.172Z,65.91
2023-07-28T04:17:29.527Z,63.18
2023-07-28T04:22:33.436Z,61.67
2023-07-28T04:27:37.486Z,58.62
2023-07-28T04:32:41.785Z,61.76
2023-07-28T04:37:46.319Z,63.88
2023-07-28T04:42:54.374Z,58.49
2023-07-28T04:47:58.575Z,59.71
2023-07-28T04:53:03.277Z,61.56
2023-07-28T04:58:08.419Z,62.71
2023-07-28T05:03:13.765Z,58.26
2023-07-28T05:08:17.781Z,59.88
2023-07-28T05:13:21.948Z,62.96
2023-07-28T05:18:25.888Z,61.99
2023-07-28T05:23:29.942Z,59.18
2023-07-28T05:28:37.328Z,59.02
2023-07-28T05:33:41.453Z,61.35
2023-07-28T05:38:45.600Z,63.72
2023-07-28T05:43:51.675Z,62.52
2023-07-28T05:48:57.686Z,56.06
2023-07-28T05:54:02.079Z,55.60
2023-07-28T05:59:05.943Z,57.26
2023-07-28T06:04:10.056Z,59.01
2023-07-28T06:09:14.364Z,61.63
2023-07-28T06:14:18.509Z,61.84
2023-07-28T06:19:25.537Z,60.92
2023-07-28T06:24:29.657Z,60.77
2023-07-28T06:29:33.789Z,60.51
2023-07-28T06:34:38.532Z,59.76
2023-07-28T06:39:42.412Z,59.50
2023-07-28T06:44:46.360Z,61.22
2023-07-28T06:49:50.417Z,61.78
2023-07-28T06:54:56.242Z,61.86
2023-07-28T07:00:01.751Z,61.92
2023-07-28T07:05:06.600Z,60.11
2023-07-28T07:10:11.149Z,59.71
2023-07-28T07:15:15.300Z,61.26
2023-07-28T07:20:19.301Z,62.40
2023-07-28T07:25:23.877Z,61.62
2023-07-28T07:30:28.098Z,60.77
2023-07-28T07:35:32.329Z,60.75
2023-07-28T07:40:38.685Z,61.34
2023-07-28T07:45:42.879Z,61.73
2023-07-28T07:50:47.133Z,62.26
2023-07-28T07:55:51.550Z,62.87
2023-07-28T08:00:56.777Z,63.37
2023-07-28T08:06:00.949Z,64.69
2023-07-28T08:11:05.893Z,65.90
2023-07-28T08:16:10.621Z,66.85
2023-07-28T08:21:14.762Z,68.26
2023-07-28T08:26:18.783Z,68.85
2023-07-28T08:31:22.846Z,69.48
2023-07-28T08:36:26.968Z,69.91
2023-07-28T08:41:31.090Z,70.29
2023-07-28T08:46:37.021Z,70.60
2023-07-28T08:51:44.117Z,71.03
2023-07-28T08:56:48.311Z,71.68
2023-07-28T09:01:54.204Z,72.86
2023-07-28T09:07:00.468Z,74.02
2023-07-28T09:12:05.582Z,75.52
2023-07-28T09:17:15.081Z,76.52
2023-07-28T09:22:20.783Z,75.95
2023-07-28T09:27:30.582Z,76.07
2023-07-28T09:32:37.040Z,76.28
2023-07-28T09:37:44.942Z,76.95
2023-07-28T09:42:54.434Z,77.20
2023-07-28T09:48:06.564Z,76.97
2023-07-28T09:53:14.778Z,76.74
2023-07-28T09:58:23.476Z,76.66
2023-07-28T10:03:28.291Z,76.65
2023-07-28T10:08:34.416Z,77.18
2023-07-28T10:13:44.394Z,77.96
2023-07-28T10:18:58.334Z,78.14
2023-07-28T10:24:02.600Z,78.09
2023-07-28T10:29:16.662Z,78.45
2023-07-28T10:34:23.339Z,78.43
2023-07-28T10:39:27.903Z,78.23
2023-07-28T10:44:34.306Z,77.88
2023-07-28T10:49:38.516Z,77.15
2023-07-28T10:54:44.170Z,76.71
2023-07-28T10:59:48.626Z,76.11
2023-07-28T11:04:52.796Z,76.22
2023-07-28T11:09:56.906Z,76.19
2023-07-28T11:15:01.446Z,76.01
2023-07-28T11:20:19.892Z,75.67
2023-07-28T11:25:27.106Z,75.81
2023-07-28T11:30:32.815Z,75.84
2023-07-28T11:35:37.531Z,75.42
2023-07-28T11:40:43.238Z,75.12
2023-07-28T11:45:47.634Z,74.68
2023-07-28T11:50:55.140Z,75.04
2023-07-28T11:55:59.495Z,75.16
2023-07-28T12:01:10.830Z,75.31
2023-07-28T12:21:56.617Z,74.31
2023-07-28T12:27:00.748Z,73.90
2023-07-28T12:32:05.229Z,73.97
2023-07-28T12:37:11.830Z,73.55
2023-07-28T12:42:21.599Z,73.16
2023-07-28T12:47:43.277Z,72.29
2023-07-28T12:57:56.173Z,71.45
2023-07-28T13:03:00.739Z,71.22
2023-07-28T13:13:14.460Z,72.54
2023-07-28T13:18:19.159Z,66.56
2023-07-28T13:23:23.416Z,64.74
2023-07-28T13:28:27.540Z,64.34
2023-07-28T13:33:32.931Z,63.93
2023-07-28T13:38:37.643Z,63.18
2023-07-28T13:43:42.280Z,62.19
2023-07-28T13:48:53.734Z,60.81
2023-07-28T13:59:06.870Z,58.00
2023-07-28T14:09:58.524Z,62.22
2023-07-28T14:15:02.918Z,56.48
2023-07-28T14:20:08.430Z,57.89
2023-07-28T14:25:12.429Z,61.64
2023-07-28T14:30:16.511Z,63.44
2023-07-28T14:35:21.060Z,58.55
2023-07-28T14:40:25.236Z,59.81
2023-07-28T14:45:29.646Z,61.58
2023-07-28T14:50:34.415Z,62.90
2023-07-28T14:55:38.534Z,58.77
2023-07-28T15:00:45.291Z,59.56
2023-07-28T15:05:54.424Z,62.43
2023-07-28T15:11:04.281Z,62.07
2023-07-28T15:16:18.760Z,57.51
2023-07-28T15:21:29.511Z,58.42
2023-07-28T15:26:40.280Z,60.00
2023-07-28T15:31:51.512Z,61.67
2023-07-28T15:37:09.892Z,61.39
2023-07-28T15:42:23.820Z,57.84
2023-07-28T15:47:35.474Z,60.31
2023-07-28T15:52:48.487Z,62.14
2023-07-28T15:57:59.571Z,59.19
2023-07-28T16:03:07.810Z,59.63
2023-07-28T16:08:23.137Z,59.79
2023-07-28T16:13:43.858Z,63.33
2023-07-28T16:19:12.021Z,62.41
2023-07-28T16:24:56.082Z,56.18
2023-07-28T16:30:23.803Z,52.12
2023-07-28T16:41:27.105Z,55.78
2023-07-28T16:46:47.262Z,57.68
2023-07-28T16:52:06.176Z,60.55
2023-07-28T16:57:22.454Z,61.88
2023-07-28T17:02:52.513Z,64.32
2023-07-28T17:08:09.278Z,59.36
2023-07-28T17:13:18.753Z,54.17
2023-07-28T17:18:48.257Z,56.97
2023-07-28T17:29:31.419Z,61.01
2023-07-28T17:34:42.014Z,63.93
2023-07-28T17:39:50.744Z,64.36
2023-07-28T17:44:54.768Z,58.35
2023-07-28T17:49:59.331Z,59.98
2023-07-28T17:55:04.075Z,61.60
2023-07-28T18:00:09.757Z,63.20
2023-07-28T18:05:13.785Z,61.84
2023-07-28T18:10:18.616Z,57.31
2023-07-28T18:21:10.225Z,61.04
2023-07-28T18:26:14.865Z,67.29
2023-07-28T18:31:19.344Z,65.33
2023-07-28T18:36:23.638Z,60.43
2023-07-28T18:41:27.749Z,57.71
2023-07-28T18:46:32.247Z,57.93
2023-07-28T18:51:37.236Z,62.61
2023-07-28T18:56:43.581Z,64.69
2023-07-28T19:01:47.498Z,62.92
2023-07-28T19:06:52.427Z,59.81
2023-07-28T19:11:56.461Z,56.81
2023-07-28T19:17:00.474Z,57.45
2023-07-28T19:22:08.274Z,59.53
2023-07-28T19:27:17.608Z,66.67
2023-07-28T19:32:22.749Z,64.95
2023-07-28T19:37:42.996Z,61.35
2023-07-28T19:42:49.219Z,60.20
2023-07-28T19:47:53.763Z,57.55
2023-07-28T19:52:59.728Z,59.13
2023-07-28T19:58:04.801Z,66.08
2023-07-28T20:03:09.106Z,63.77
2023-07-28T20:08:13.581Z,59.95
2023-07-28T20:13:17.239Z,58.50
2023-07-28T20:18:22.941Z,60.96
2023-07-28T20:23:30.192Z,67.07
2023-07-28T20:28:52.670Z,63.63
2023-07-28T20:33:58.245Z,59.55
2023-07-28T20:39:03.034Z,57.80
2023-07-28T20:44:07.610Z,59.89
2023-07-28T20:49:12.931Z,65.62
2023-07-28T20:54:26.518Z,62.87
2023-07-28T20:59:45.408Z,58.54
2023-07-28T21:05:03.507Z,58.06
2023-07-28T21:10:34.095Z,60.20
2023-07-28T21:15:43.493Z,67.58
2023-07-28T21:20:48.288Z,64.67
2023-07-28T21:25:52.564Z,61.27
2023-07-28T21:30:56.609Z,57.79
2023-07-28T21:36:00.725Z,60.25
2023-07-28T21:41:06.990Z,65.37
2023-07-28T21:46:10.880Z,61.90
2023-07-28T21:51:14.960Z,57.53
2023-07-28T21:56:31.536Z,58.41
2023-07-28T22:01:35.659Z,65.06
2023-07-28T22:06:42.477Z,66.04
2023-07-28T22:11:47.047Z,61.61
2023-07-28T22:16:58.366Z,58.47
2023-07-28T22:22:06.874Z,59.17
2023-07-28T22:27:12.480Z,61.93
2023-07-28T22:32:16.431Z,67.23
2023-07-28T22:37:21.202Z,63.06
2023-07-28T22:42:25.927Z,59.70
2023-07-28T22:47:31.686Z,57.76
2023-07-28T22:52:36.510Z,61.28
2023-07-28T22:57:40.746Z,66.97
2023-07-28T23:02:44.813Z,63.04
2023-07-28T23:07:48.913Z,59.51
2023-07-28T23:12:54.383Z,58.09
2023-07-28T23:17:59.963Z,61.90
2023-07-28T23:23:05.507Z,66.07
2023-07-28T23:28:09.344Z,61.39
2023-07-28T23:33:13.692Z,57.88
2023-07-28T23:38:17.930Z,59.65
2023-07-28T23:43:21.942Z,63.86
2023-07-28T23:48:29.207Z,66.09
2023-07-28T23:53:33.187Z,61.64
2023-07-28T23:58:37.222Z,58.39
